Time;durP1;ratioP1;P1;durP2;ratioP2;P2;SDS_P1;SDS_P2;PMS_P1;PMS_P2;Temp;Humidity;BMP_temperature;BMP_pressure;BME280_temperature;BME280_humidity;BME280_pressure;Samples;Min_cycle;Max_cycle;Signal;HPM_P1;HPM_P2
2023/10/25 00:00:01;;;;;;;2.00;1.90;;;;;;;;;;5019196;28;20487;-59
2023/10/25 00:02:29;;;;;;;2.40;2.20;;;;;;;;;;5018564;28;20210;-59
2023/10/25 00:04:57;;;;;;;2.20;2.00;;;;;;;;;;5018510;28;20237;-59
2023/10/25 00:07:26;;;;;;;2.03;1.92;;;;;;;;;;5019285;28;20236;-59
2023/10/25 00:09:53;;;;;;;1.95;1.75;;;;;;;;;;5018807;28;20206;-59
2023/10/25 00:12:21;;;;;;;1.88;1.77;;;;;;;;;;5018636;28;20206;-59
2023/10/25 00:14:49;;;;;;;2.20;2.00;;;;;;;;;;5018762;28;20214;-59
2023/10/25 00:17:16;;;;;;;1.90;1.80;;;;;;;;;;5018667;28;20234;-59
2023/10/25 00:19:44;;;;;;;1.95;1.77;;;;;;;;;;5018291;28;20214;-59
2023/10/25 00:22:12;;;;;;;2.00;1.90;;;;;;;;;;5018566;28;20222;-59
2023/10/25 00:24:40;;;;;;;1.83;1.73;;;;;;;;;;5018427;28;20214;-59
2023/10/25 00:27:08;;;;;;;2.00;1.83;;;;;;;;;;5018079;28;20269;-59
2023/10/25 00:29:35;;;;;;;1.70;1.60;;;;;;;;;;5018838;28;20476;-59
2023/10/25 00:32:04;;;;;;;2.08;1.98;;;;;;;;;;5018530;28;20241;-59
2023/10/25 00:34:32;;;;;;;2.30;1.83;;;;;;;;;;5018738;28;20238;-59
2023/10/25 00:37:00;;;;;;;1.65;1.55;;;;;;;;;;5018416;28;20230;-59
2023/10/25 00:39:28;;;;;;;1.70;1.60;;;;;;;;;;5018233;28;20268;-59
2023/10/25 00:41:57;;;;;;;1.90;1.80;;;;;;;;;;5017501;28;20208;-59
2023/10/25 00:44:24;;;;;;;2.22;2.03;;;;;;;;;;5018471;28;20206;-59
2023/10/25 00:46:52;;;;;;;1.98;1.77;;;;;;;;;;5018251;28;20209;-59
2023/10/25 00:49:20;;;;;;;2.03;1.80;;;;;;;;;;5017876;28;20214;-59
2023/10/25 00:51:48;;;;;;;1.77;1.65;;;;;;;;;;5018069;28;20325;-59
2023/10/25 00:54:16;;;;;;;1.73;1.63;;;;;;;;;;5018300;28;20206;-59
2023/10/25 00:56:44;;;;;;;1.90;1.80;;;;;;;;;;5017773;28;20245;-59
2023/10/25 00:59:13;;;;;;;1.67;1.58;;;;;;;;;;5017488;28;20289;-59
2023/10/25 01:01:42;;;;;;;2.45;1.83;;;;;;;;;;5018033;28;20213;-59
2023/10/25 01:04:10;;;;;;;2.20;2.00;;;;;;;;;;5017843;28;20207;-60
2023/10/25 01:06:38;;;;;;;1.75;1.65;;;;;;;;;;5017679;28;20268;-59
2023/10/25 01:09:06;;;;;;;1.73;1.63;;;;;;;;;;5017945;28;20214;-59
2023/10/25 01:11:33;;;;;;;1.75;1.65;;;;;;;;;;5017556;28;20272;-60
2023/10/25 01:14:01;;;;;;;1.70;1.60;;;;;;;;;;5017634;28;20668;-60
2023/10/25 01:16:30;;;;;;;1.90;1.80;;;;;;;;;;5017433;28;20243;-59
2023/10/25 01:18:58;;;;;;;1.70;1.60;;;;;;;;;;5018109;28;20202;-59
2023/10/25 01:21:25;;;;;;;1.77;1.67;;;;;;;;;;5017795;28;20246;-59
2023/10/25 01:23:54;;;;;;;1.65;1.55;;;;;;;;;;5018145;28;20248;-59
2023/10/25 01:26:22;;;;;;;1.52;1.42;;;;;;;;;;5017689;28;20210;-59
2023/10/25 01:28:50;;;;;;;1.55;1.45;;;;;;;;;;5018030;28;20217;-59
2023/10/25 01:31:17;;;;;;;2.75;1.75;;;;;;;;;;5017365;28;20217;-59
2023/10/25 01:33:47;;;;;;;1.83;1.73;;;;;;;;;;5017765;28;20249;-59
2023/10/25 01:36:14;;;;;;;1.60;1.50;;;;;;;;;;5017620;28;20233;-59
2023/10/25 01:38:42;;;;;;;1.98;1.88;;;;;;;;;;5017968;28;20206;-59
2023/10/25 01:41:15;;;;;;;1.70;1.60;;;;;;;;;;5017443;28;20245;-59
2023/10/25 01:43:43;;;;;;;1.45;1.35;;;;;;;;;;5017752;28;20237;-59
2023/10/25 01:46:11;;;;;;;1.77;1.67;;;;;;;;;;5017677;28;20242;-59
2023/10/25 01:48:38;;;;;;;1.70;1.60;;;;;;;;;;5017528;28;20276;-59
2023/10/25 01:51:06;;;;;;;1.70;1.60;;;;;;;;;;5017477;28;20242;-59
2023/10/25 01:53:34;;;;;;;1.35;1.25;;;;;;;;;;5020884;28;20221;-59
2023/10/25 01:56:02;;;;;;;2.05;1.50;;;;;;;;;;5021566;28;20226;-59
2023/10/25 01:58:31;;;;;;;1.60;1.50;;;;;;;;;;5021597;28;20213;-59
2023/10/25 02:00:58;;;;;;;1.77;1.67;;;;;;;;;;5021009;28;20210;-59
2023/10/25 02:03:26;;;;;;;1.30;1.20;;;;;;;;;;5021072;28;20213;-59
2023/10/25 02:05:53;;;;;;;1.70;1.60;;;;;;;;;;5021316;28;20210;-59
2023/10/25 02:08:21;;;;;;;1.60;1.50;;;;;;;;;;5021590;28;20269;-59
2023/10/25 02:10:49;;;;;;;1.65;1.55;;;;;;;;;;5020914;28;20207;-59
2023/10/25 02:13:16;;;;;;;1.58;1.48;;;;;;;;;;5020451;28;20241;-59
2023/10/25 02:15:45;;;;;;;1.80;1.70;;;;;;;;;;5020979;28;20605;-59
2023/10/25 02:18:13;;;;;;;1.40;1.30;;;;;;;;;;5021057;28;20541;-59
2023/10/25 02:20:41;;;;;;;1.50;1.40;;;;;;;;;;5021027;28;20231;-59
2023/10/25 02:23:08;;;;;;;1.50;1.40;;;;;;;;;;5020732;28;20266;-59
2023/10/25 02:25:36;;;;;;;1.40;1.30;;;;;;;;;;5020814;28;20212;-59
2023/10/25 02:28:03;;;;;;;1.30;1.20;;;;;;;;;;5020995;28;20289;-59
2023/10/25 02:30:31;;;;;;;1.60;1.50;;;;;;;;;;5020230;28;20207;-59
2023/10/25 02:33:00;;;;;;;1.50;1.40;;;;;;;;;;5020495;28;20577;-59
2023/10/25 02:35:27;;;;;;;1.58;1.33;;;;;;;;;;5020702;28;20206;-59
2023/10/25 02:37:55;;;;;;;1.50;1.40;;;;;;;;;;5020474;28;20230;-59
2023/10/25 02:40:23;;;;;;;1.25;1.17;;;;;;;;;;5020493;28;20530;-59
2023/10/25 02:42:50;;;;;;;1.50;1.35;;;;;;;;;;5020305;28;20586;-59
2023/10/25 02:45:18;;;;;;;1.20;1.20;;;;;;;;;;5020085;28;20284;-59
2023/10/25 02:47:45;;;;;;;1.40;1.30;;;;;;;;;;5020386;28;20209;-59
2023/10/25 02:50:13;;;;;;;1.50;1.40;;;;;;;;;;5020425;28;20276;-59
2023/10/25 02:52:44;;;;;;;1.40;1.30;;;;;;;;;;5020647;28;20288;-59
2023/10/25 02:55:11;;;;;;;1.95;1.50;;;;;;;;;;5020280;28;20240;-59
2023/10/25 02:57:39;;;;;;;1.73;1.63;;;;;;;;;;5019810;28;20265;-59
2023/10/25 03:00:07;;;;;;;1.58;1.48;;;;;;;;;;5020008;28;20206;-60
2023/10/25 03:02:35;;;;;;;1.33;1.23;;;;;;;;;;5019697;28;20206;-59
2023/10/25 03:05:03;;;;;;;1.40;1.30;;;;;;;;;;5018988;28;20207;-59
2023/10/25 03:07:32;;;;;;;1.40;1.30;;;;;;;;;;5020230;28;20477;-59
2023/10/25 03:09:59;;;;;;;1.42;1.33;;;;;;;;;;5019689;28;20214;-60
2023/10/25 03:12:27;;;;;;;1.48;1.38;;;;;;;;;;5020118;28;20206;-59
2023/10/25 03:14:54;;;;;;;1.27;1.20;;;;;;;;;;5019423;28;20669;-60
2023/10/25 03:17:22;;;;;;;2.00;1.63;;;;;;;;;;5019542;28;20747;-59
2023/10/25 03:19:49;;;;;;;1.40;1.30;;;;;;;;;;5019465;28;20217;-59
2023/10/25 03:22:17;;;;;;;1.38;1.27;;;;;;;;;;5019439;28;20206;-59
2023/10/25 03:24:46;;;;;;;1.40;1.30;;;;;;;;;;5019827;28;20310;-59
2023/10/25 03:27:14;;;;;;;1.30;1.20;;;;;;;;;;5019282;28;20210;-59
2023/10/25 03:29:41;;;;;;;1.27;1.15;;;;;;;;;;5019195;28;20305;-59
2023/10/25 03:32:09;;;;;;;1.50;1.40;;;;;;;;;;5019228;28;20660;-59
2023/10/25 03:34:37;;;;;;;1.10;1.10;;;;;;;;;;5020111;28;20280;-60
2023/10/25 03:37:04;;;;;;;1.20;1.10;;;;;;;;;;5035478;28;20230;-59
2023/10/25 03:39:32;;;;;;;1.23;1.13;;;;;;;;;;5034251;28;20213;-59
2023/10/25 03:42:01;;;;;;;1.20;1.20;;;;;;;;;;5033948;28;20213;-59
2023/10/25 03:44:28;;;;;;;1.13;1.13;;;;;;;;;;5035507;28;20296;-59
2023/10/25 03:46:56;;;;;;;1.25;1.15;;;;;;;;;;5035711;28;20264;-59
2023/10/25 03:49:24;;;;;;;1.27;1.17;;;;;;;;;;5034941;28;20768;-59
2023/10/25 03:51:52;;;;;;;1.15;1.08;;;;;;;;;;5034295;28;20585;-59
2023/10/25 03:54:19;;;;;;;1.23;1.13;;;;;;;;;;5035229;28;20313;-59
2023/10/25 03:56:47;;;;;;;1.23;1.13;;;;;;;;;;5033962;28;20664;-59
2023/10/25 03:59:17;;;;;;;1.30;1.20;;;;;;;;;;5034692;28;20206;-60
2023/10/25 04:01:45;;;;;;;1.50;1.40;;;;;;;;;;5034582;28;20205;-59
2023/10/25 04:04:13;;;;;;;1.38;1.20;;;;;;;;;;5033102;28;20229;-59
2023/10/25 04:06:40;;;;;;;1.45;1.35;;;;;;;;;;5034889;28;20489;-59
2023/10/25 04:09:08;;;;;;;1.40;1.30;;;;;;;;;;5035177;28;20679;-59
2023/10/25 04:11:36;;;;;;;1.20;1.10;;;;;;;;;;5034057;28;20213;-59
2023/10/25 04:14:03;;;;;;;1.00;1.00;;;;;;;;;;5034755;28;20799;-59
2023/10/25 04:16:32;;;;;;;0.98;0.98;;;;;;;;;;5033968;28;20513;-59
2023/10/25 04:19:00;;;;;;;1.17;1.08;;;;;;;;;;5033881;28;20259;-59
2023/10/25 04:21:27;;;;;;;1.20;1.10;;;;;;;;;;5033971;28;20581;-59
2023/10/25 04:23:55;;;;;;;0.98;0.98;;;;;;;;;;5034741;28;20215;-59
2023/10/25 04:26:24;;;;;;;1.10;1.10;;;;;;;;;;5034435;28;20206;-59
2023/10/25 04:28:52;;;;;;;1.27;1.17;;;;;;;;;;5034116;28;20209;-59
2023/10/25 04:31:20;;;;;;;1.38;1.27;;;;;;;;;;5033653;28;20264;-60
2023/10/25 04:33:49;;;;;;;1.20;1.10;;;;;;;;;;5033868;28;20700;-59
2023/10/25 04:36:17;;;;;;;2.35;1.13;;;;;;;;;;5033497;28;20228;-59
2023/10/25 04:38:46;;;;;;;1.30;1.20;;;;;;;;;;5033448;28;20220;-59
2023/10/25 04:41:14;;;;;;;1.00;1.00;;;;;;;;;;5033678;28;20252;-59
2023/10/25 04:43:42;;;;;;;1.15;1.00;;;;;;;;;;5033669;28;20213;-59
2023/10/25 04:46:14;;;;;;;1.10;1.00;;;;;;;;;;5033551;28;20202;-59
2023/10/25 04:48:42;;;;;;;1.30;1.20;;;;;;;;;;5033001;28;20220;-60
2023/10/25 04:51:14;;;;;;;1.20;1.10;;;;;;;;;;5032988;28;20241;-59
2023/10/25 04:53:41;;;;;;;1.30;1.20;;;;;;;;;;5032379;28;20217;-59
2023/10/25 04:56:09;;;;;;;1.40;1.30;;;;;;;;;;5032344;28;20216;-59
2023/10/25 04:58:37;;;;;;;1.30;1.20;;;;;;;;;;5032387;28;20226;-59
2023/10/25 05:01:12;;;;;;;1.33;1.23;;;;;;;;;;5034030;28;20236;-59
2023/10/25 05:03:40;;;;;;;1.20;1.10;;;;;;;;;;5035593;28;20565;-59
2023/10/25 05:06:08;;;;;;;1.40;1.30;;;;;;;;;;5035192;28;20289;-59
2023/10/25 05:08:36;;;;;;;1.17;1.10;;;;;;;;;;5035758;28;20202;-59
2023/10/25 05:11:07;;;;;;;1.40;1.30;;;;;;;;;;5035489;28;20571;-59
2023/10/25 05:13:35;;;;;;;1.38;1.23;;;;;;;;;;5034831;28;20213;-59
2023/10/25 05:16:04;;;;;;;1.30;1.20;;;;;;;;;;5035492;28;20252;-59
2023/10/25 05:18:31;;;;;;;1.42;1.20;;;;;;;;;;5035747;28;20279;-59
2023/10/25 05:21:00;;;;;;;1.77;1.23;;;;;;;;;;5035704;28;20237;-59
2023/10/25 05:23:31;;;;;;;1.45;1.17;;;;;;;;;;5035570;28;20249;-59
2023/10/25 05:25:59;;;;;;;1.25;1.15;;;;;;;;;;5035384;28;20616;-59
2023/10/25 05:28:28;;;;;;;1.38;1.27;;;;;;;;;;5034606;28;20463;-59
2023/10/25 05:30:56;;;;;;;1.25;1.15;;;;;;;;;;5035352;28;20205;-60
2023/10/25 05:33:25;;;;;;;1.33;1.20;;;;;;;;;;5034901;28;20549;-59
2023/10/25 05:35:53;;;;;;;1.20;1.10;;;;;;;;;;5026464;28;20203;-59
2023/10/25 05:38:20;;;;;;;1.83;1.40;;;;;;;;;;5014726;28;20292;-59
2023/10/25 05:40:49;;;;;;;2.00;1.33;;;;;;;;;;5014389;28;20257;-59
2023/10/25 05:43:17;;;;;;;1.45;1.35;;;;;;;;;;5014682;28;20565;-59
2023/10/25 05:45:46;;;;;;;1.55;1.23;;;;;;;;;;5015290;28;20602;-60
2023/10/25 05:48:15;;;;;;;1.63;1.10;;;;;;;;;;5015358;28;20213;-59
2023/10/25 05:50:44;;;;;;;1.42;1.33;;;;;;;;;;5014740;28;20296;-59
2023/10/25 05:53:13;;;;;;;1.20;1.10;;;;;;;;;;5014472;28;20209;-59
2023/10/25 05:55:41;;;;;;;1.33;1.10;;;;;;;;;;5015395;28;20288;-60
2023/10/25 05:58:09;;;;;;;2.97;1.33;;;;;;;;;;5014652;28;20238;-59
2023/10/25 06:00:37;;;;;;;1.13;1.02;;;;;;;;;;5014131;28;20206;-59
2023/10/25 06:03:06;;;;;;;1.50;1.30;;;;;;;;;;5014083;28;20216;-59
2023/10/25 06:05:35;;;;;;;1.35;1.25;;;;;;;;;;5014876;28;20206;-59
2023/10/25 06:08:03;;;;;;;1.25;1.15;;;;;;;;;;5014901;28;20210;-59
2023/10/25 06:10:30;;;;;;;1.40;1.30;;;;;;;;;;5014854;28;20256;-59
2023/10/25 06:12:58;;;;;;;1.30;1.20;;;;;;;;;;5015149;28;20625;-59
2023/10/25 06:15:26;;;;;;;1.27;1.17;;;;;;;;;;5015549;28;20546;-59
2023/10/25 06:17:53;;;;;;;1.60;1.42;;;;;;;;;;5015402;28;20333;-59
2023/10/25 06:20:22;;;;;;;1.35;1.20;;;;;;;;;;5015149;28;20214;-59
2023/10/25 06:22:50;;;;;;;1.88;1.40;;;;;;;;;;5015257;28;20210;-59
2023/10/25 06:25:17;;;;;;;1.50;1.20;;;;;;;;;;5015272;28;20208;-59
2023/10/25 06:27:45;;;;;;;2.40;1.27;;;;;;;;;;5014877;28;20574;-59
2023/10/25 06:30:13;;;;;;;2.90;1.50;;;;;;;;;;5015317;28;20618;-59
2023/10/25 06:32:41;;;;;;;2.40;1.40;;;;;;;;;;5015380;28;20221;-59
2023/10/25 06:35:09;;;;;;;2.65;1.50;;;;;;;;;;5015101;28;20242;-59
2023/10/25 06:37:38;;;;;;;1.50;1.38;;;;;;;;;;5015144;28;20572;-59
2023/10/25 06:40:07;;;;;;;2.10;1.30;;;;;;;;;;5017815;28;20293;-59
2023/10/25 06:42:35;;;;;;;2.55;1.30;;;;;;;;;;5018049;28;20321;-59
2023/10/25 06:45:03;;;;;;;1.75;1.40;;;;;;;;;;5018434;28;20297;-59
2023/10/25 06:47:31;;;;;;;1.67;1.40;;;;;;;;;;5018165;28;20260;-59
2023/10/25 06:49:59;;;;;;;2.90;1.40;;;;;;;;;;5018316;28;20320;-59
2023/10/25 06:52:26;;;;;;;1.55;1.45;;;;;;;;;;5017969;28;20249;-59
2023/10/25 06:54:56;;;;;;;1.75;1.60;;;;;;;;;;5018421;28;20489;-59
2023/10/25 06:57:23;;;;;;;2.10;1.50;;;;;;;;;;5018068;28;20230;-59
2023/10/25 06:59:51;;;;;;;1.98;1.30;;;;;;;;;;5017843;28;20594;-59
2023/10/25 07:02:30;;;;;;;1.58;1.30;;;;;;;;;;5018425;28;20271;-60
2023/10/25 07:04:59;;;;;;;1.92;1.60;;;;;;;;;;5018032;28;20289;-59
2023/10/25 07:07:27;;;;;;;1.70;1.30;;;;;;;;;;5018471;28;20272;-59
2023/10/25 07:09:57;;;;;;;1.67;1.30;;;;;;;;;;5017712;28;20217;-59
2023/10/25 07:12:25;;;;;;;1.85;1.38;;;;;;;;;;5018388;28;20547;-59
2023/10/25 07:14:52;;;;;;;1.50;1.40;;;;;;;;;;5017881;28;20298;-59
2023/10/25 07:17:20;;;;;;;1.60;1.50;;;;;;;;;;5017981;28;20578;-59
2023/10/25 07:19:48;;;;;;;1.75;1.65;;;;;;;;;;5017666;28;20579;-59
2023/10/25 07:22:15;;;;;;;2.00;1.60;;;;;;;;;;5018275;28;20210;-59
2023/10/25 07:24:44;;;;;;;1.85;1.40;;;;;;;;;;5018710;28;20207;-59
2023/10/25 07:27:14;;;;;;;2.05;1.50;;;;;;;;;;5018028;28;20290;-59
2023/10/25 07:29:41;;;;;;;2.25;1.40;;;;;;;;;;5017735;28;20233;-59
2023/10/25 07:32:09;;;;;;;1.75;1.60;;;;;;;;;;5018113;28;20686;-59
2023/10/25 07:34:37;;;;;;;2.00;1.50;;;;;;;;;;5017633;28;20661;-59
2023/10/25 07:37:05;;;;;;;1.80;1.55;;;;;;;;;;5018022;28;20670;-59
2023/10/25 07:39:33;;;;;;;1.52;1.40;;;;;;;;;;5017458;28;20693;-59
2023/10/25 07:42:01;;;;;;;1.83;1.30;;;;;;;;;;5017304;28;20598;-59
2023/10/25 07:44:30;;;;;;;1.85;1.50;;;;;;;;;;5017517;28;20285;-59
2023/10/25 07:46:57;;;;;;;1.55;1.40;;;;;;;;;;5017222;28;20203;-59
2023/10/25 07:49:25;;;;;;;1.48;1.30;;;;;;;;;;5017320;28;20256;-59
2023/10/25 07:51:54;;;;;;;2.50;1.35;;;;;;;;;;5016877;28;20587;-59
2023/10/25 07:54:22;;;;;;;1.98;1.48;;;;;;;;;;5017135;28;20471;-59
2023/10/25 07:56:49;;;;;;;1.83;1.42;;;;;;;;;;5017288;28;20451;-59
2023/10/25 07:59:17;;;;;;;1.88;1.70;;;;;;;;;;5017945;28;20273;-59
2023/10/25 08:01:46;;;;;;;2.67;1.60;;;;;;;;;;5016869;28;20206;-59
2023/10/25 08:04:13;;;;;;;1.35;1.25;;;;;;;;;;5016353;28;20289;-59
2023/10/25 08:06:43;;;;;;;1.40;1.30;;;;;;;;;;5017299;28;20198;-59
2023/10/25 08:09:11;;;;;;;1.40;1.30;;;;;;;;;;5016838;28;20202;-59
2023/10/25 08:11:38;;;;;;;1.73;1.55;;;;;;;;;;5017390;28;20590;-59
2023/10/25 08:14:06;;;;;;;1.90;1.67;;;;;;;;;;5016398;28;20214;-59
2023/10/25 08:16:38;;;;;;;1.40;1.30;;;;;;;;;;5016771;28;20225;-59
2023/10/25 08:19:07;;;;;;;1.50;1.40;;;;;;;;;;5016364;28;20244;-59
2023/10/25 08:21:35;;;;;;;1.70;1.40;;;;;;;;;;5016198;28;20260;-59
2023/10/25 08:24:05;;;;;;;1.80;1.70;;;;;;;;;;5016502;28;20213;-59
2023/10/25 08:26:36;;;;;;;1.50;1.25;;;;;;;;;;5016579;28;20213;-59
2023/10/25 08:29:05;;;;;;;1.42;1.30;;;;;;;;;;5016092;28;20202;-59
2023/10/25 08:31:32;;;;;;;1.55;1.25;;;;;;;;;;5016559;28;20206;-59
2023/10/25 08:34:00;;;;;;;1.70;1.58;;;;;;;;;;5016218;28;20208;-59
2023/10/25 08:36:30;;;;;;;1.55;1.45;;;;;;;;;;5016165;28;20238;-59
2023/10/25 08:38:58;;;;;;;1.67;1.58;;;;;;;;;;5015488;28;20329;-59
2023/10/25 08:41:27;;;;;;;1.50;1.40;;;;;;;;;;5015508;28;20222;-59
2023/10/25 08:43:54;;;;;;;1.50;1.40;;;;;;;;;;5015665;28;20237;-59
2023/10/25 08:46:22;;;;;;;1.40;1.30;;;;;;;;;;5015803;28;20218;-59
2023/10/25 08:48:52;;;;;;;1.75;1.30;;;;;;;;;;5015802;28;20255;-59
2023/10/25 08:51:20;;;;;;;1.73;1.40;;;;;;;;;;5015579;28;20535;-59
2023/10/25 08:53:52;;;;;;;1.42;1.33;;;;;;;;;;5015593;28;20264;-59
2023/10/25 08:56:19;;;;;;;1.70;1.30;;;;;;;;;;5016484;28;20206;-59
2023/10/25 08:58:47;;;;;;;1.48;1.25;;;;;;;;;;5015897;28;20226;-59
2023/10/25 09:01:14;;;;;;;1.58;1.48;;;;;;;;;;5016102;28;20260;-59
2023/10/25 09:03:43;;;;;;;1.45;1.35;;;;;;;;;;5015218;28;20198;-59
2023/10/25 09:06:11;;;;;;;1.35;1.20;;;;;;;;;;5016414;28;20198;-59
2023/10/25 09:08:39;;;;;;;1.85;1.40;;;;;;;;;;5014337;28;20575;-59
2023/10/25 09:11:10;;;;;;;1.40;1.30;;;;;;;;;;5015949;28;20205;-62
2023/10/25 09:13:39;;;;;;;1.85;1.75;;;;;;;;;;5015943;28;20614;-59
2023/10/25 09:16:07;;;;;;;1.88;1.40;;;;;;;;;;5016039;28;20586;-59
2023/10/25 09:18:36;;;;;;;1.30;1.20;;;;;;;;;;5016297;28;20234;-59
2023/10/25 09:21:05;;;;;;;1.40;1.30;;;;;;;;;;5015676;28;20241;-59
2023/10/25 09:23:33;;;;;;;1.65;1.55;;;;;;;;;;5015983;28;20206;-59
2023/10/25 09:26:01;;;;;;;1.40;1.30;;;;;;;;;;5015500;28;20237;-59
2023/10/25 09:28:30;;;;;;;1.40;1.30;;;;;;;;;;5015937;28;20209;-59
2023/10/25 09:30:58;;;;;;;1.48;1.35;;;;;;;;;;5015469;28;20206;-59
2023/10/25 09:33:27;;;;;;;1.77;1.33;;;;;;;;;;5014274;28;20691;-59
2023/10/25 09:35:55;;;;;;;2.03;1.10;;;;;;;;;;5014512;28;20676;-59
2023/10/25 09:38:23;;;;;;;1.90;1.30;;;;;;;;;;5015726;28;20226;-59
2023/10/25 09:40:52;;;;;;;1.42;1.33;;;;;;;;;;5015269;28;20546;-59
2023/10/25 09:43:20;;;;;;;1.67;1.45;;;;;;;;;;5014956;28;20308;-59
2023/10/25 09:45:52;;;;;;;1.35;1.10;;;;;;;;;;5015351;28;20212;-59
2023/10/25 09:48:20;;;;;;;2.38;1.23;;;;;;;;;;5014457;28;20197;-59
2023/10/25 09:50:55;;;;;;;2.15;1.50;;;;;;;;;;5013399;28;20503;-59
2023/10/25 09:53:28;;;;;;;1.95;1.35;;;;;;;;;;5032804;28;20763;-59
2023/10/25 09:55:59;;;;;;;2.08;1.10;;;;;;;;;;5034845;28;20201;-59
2023/10/25 09:58:29;;;;;;;2.40;1.50;;;;;;;;;;5033895;28;20221;-59
2023/10/25 10:00:59;;;;;;;2.78;1.10;;;;;;;;;;5034586;28;20490;-59
2023/10/25 10:03:32;;;;;;;1.50;1.40;;;;;;;;;;5034979;28;20206;-59
2023/10/25 10:06:03;;;;;;;1.40;1.30;;;;;;;;;;5034015;28;20301;-59
2023/10/25 10:08:34;;;;;;;1.30;1.20;;;;;;;;;;5034382;28;20208;-59
2023/10/25 10:11:04;;;;;;;2.10;1.23;;;;;;;;;;5033186;28;20226;-59
2023/10/25 10:13:32;;;;;;;2.28;1.23;;;;;;;;;;5035699;28;20221;-59
2023/10/25 10:16:02;;;;;;;1.75;1.20;;;;;;;;;;5037201;28;20214;-59
2023/10/25 10:18:30;;;;;;;1.13;1.02;;;;;;;;;;5037694;28;20221;-59
2023/10/25 10:21:01;;;;;;;1.30;1.20;;;;;;;;;;5037844;28;20230;-59
2023/10/25 10:23:36;;;;;;;1.15;1.13;;;;;;;;;;5037962;28;20321;-59
2023/10/25 10:26:05;;;;;;;1.30;1.20;;;;;;;;;;5037162;28;20205;-59
2023/10/25 10:28:42;;;;;;;1.42;1.10;;;;;;;;;;5038424;28;20201;-59
2023/10/25 10:31:12;;;;;;;1.50;1.10;;;;;;;;;;5037520;28;20241;-59
2023/10/25 10:33:44;;;;;;;1.40;1.10;;;;;;;;;;5037169;28;20631;-59
2023/10/25 10:36:13;;;;;;;1.25;1.15;;;;;;;;;;5037942;28;20238;-59
2023/10/25 10:38:56;;;;;;;1.35;1.15;;;;;;;;;;5036913;28;20232;-59
2023/10/25 10:41:30;;;;;;;1.65;1.50;;;;;;;;;;5020528;28;20597;-59
2023/10/25 10:43:58;;;;;;;1.20;1.10;;;;;;;;;;5036020;28;20565;-59
2023/10/25 10:46:31;;;;;;;1.20;1.00;;;;;;;;;;5035914;28;20765;-59
2023/10/25 10:49:02;;;;;;;1.33;1.00;;;;;;;;;;5037134;28;20205;-59
2023/10/25 10:51:30;;;;;;;1.58;1.10;;;;;;;;;;5036827;28;20328;-59
2023/10/25 10:53:58;;;;;;;1.20;1.10;;;;;;;;;;5036816;28;20213;-60
2023/10/25 10:56:26;;;;;;;1.30;1.20;;;;;;;;;;5037089;28;20206;-59
2023/10/25 10:58:54;;;;;;;1.35;1.00;;;;;;;;;;5036443;28;20295;-59
2023/10/25 11:01:22;;;;;;;1.60;1.30;;;;;;;;;;5036935;28;20206;-59
2023/10/25 11:03:51;;;;;;;1.75;1.38;;;;;;;;;;5036582;28;20201;-59
2023/10/25 11:06:21;;;;;;;1.75;1.30;;;;;;;;;;5036968;28;20622;-59
2023/10/25 11:08:49;;;;;;;1.40;1.25;;;;;;;;;;5037261;28;20198;-59
2023/10/25 11:11:16;;;;;;;1.38;1.27;;;;;;;;;;5036315;28;20271;-59
2023/10/25 11:13:44;;;;;;;1.30;1.20;;;;;;;;;;5035888;28;20897;-59
2023/10/25 11:16:12;;;;;;;1.40;1.27;;;;;;;;;;5036444;28;20259;-59
2023/10/25 11:18:40;;;;;;;1.30;1.20;;;;;;;;;;5035618;28;20208;-59
2023/10/25 11:21:09;;;;;;;1.52;1.25;;;;;;;;;;5036359;28;20206;-59
2023/10/25 11:23:37;;;;;;;1.38;1.20;;;;;;;;;;5036448;28;20206;-59
2023/10/25 11:26:05;;;;;;;1.67;1.27;;;;;;;;;;5036491;28;20201;-59
2023/10/25 11:28:33;;;;;;;1.23;1.08;;;;;;;;;;5036282;28;20871;-59
2023/10/25 11:31:03;;;;;;;2.20;1.23;;;;;;;;;;5035367;28;20287;-59
2023/10/25 11:33:31;;;;;;;2.08;1.30;;;;;;;;;;5035248;28;20651;-59
2023/10/25 11:35:59;;;;;;;1.63;1.10;;;;;;;;;;5035228;28;20300;-59
2023/10/25 11:38:29;;;;;;;1.80;1.25;;;;;;;;;;5035431;28;20551;-59
2023/10/25 11:40:57;;;;;;;1.20;1.10;;;;;;;;;;5036462;28;20229;-59
2023/10/25 11:43:25;;;;;;;1.75;1.30;;;;;;;;;;5035810;28;20212;-59
2023/10/25 11:45:53;;;;;;;1.40;1.30;;;;;;;;;;5034785;28;20205;-59
2023/10/25 11:48:22;;;;;;;1.50;1.40;;;;;;;;;;5035022;28;20776;-59
2023/10/25 11:50:49;;;;;;;2.05;1.50;;;;;;;;;;5035170;28;20622;-59
2023/10/25 11:53:17;;;;;;;1.80;1.42;;;;;;;;;;5034946;28;20206;-59
2023/10/25 11:55:46;;;;;;;1.33;1.23;;;;;;;;;;5034855;28;20267;-59
2023/10/25 11:58:16;;;;;;;1.58;1.48;;;;;;;;;;5035377;28;20201;-59
2023/10/25 12:00:45;;;;;;;1.65;1.52;;;;;;;;;;5034984;28;20850;-59
2023/10/25 12:03:12;;;;;;;1.70;1.40;;;;;;;;;;5035941;28;20236;-59
2023/10/25 12:05:41;;;;;;;1.30;1.20;;;;;;;;;;5036280;28;20197;-59
2023/10/25 12:08:08;;;;;;;1.60;1.48;;;;;;;;;;5035003;28;20307;-59
2023/10/25 12:10:36;;;;;;;1.52;1.20;;;;;;;;;;5035739;28;20241;-59
2023/10/25 12:13:05;;;;;;;1.60;1.38;;;;;;;;;;5035387;28;20577;-59
2023/10/25 12:15:33;;;;;;;2.75;1.30;;;;;;;;;;5035032;28;20248;-59
2023/10/25 12:18:01;;;;;;;1.33;0.98;;;;;;;;;;5035508;28;20212;-59
2023/10/25 12:20:28;;;;;;;1.77;1.30;;;;;;;;;;5036148;28;20225;-59
2023/10/25 12:22:56;;;;;;;1.88;1.42;;;;;;;;;;5035455;28;20232;-59
2023/10/25 12:25:24;;;;;;;1.73;1.10;;;;;;;;;;5034221;28;20231;-59
2023/10/25 12:27:52;;;;;;;1.23;1.13;;;;;;;;;;5034973;28;20241;-59
2023/10/25 12:30:21;;;;;;;1.25;1.15;;;;;;;;;;5035230;28;20205;-59
2023/10/25 12:32:48;;;;;;;2.28;1.30;;;;;;;;;;5035370;28;20205;-59
2023/10/25 12:35:16;;;;;;;1.30;1.20;;;;;;;;;;5034760;28;20276;-59
2023/10/25 12:37:44;;;;;;;1.40;1.30;;;;;;;;;;5035314;28;20210;-59
2023/10/25 12:40:11;;;;;;;1.42;1.30;;;;;;;;;;5035205;28;20619;-59
2023/10/25 12:42:39;;;;;;;1.35;1.10;;;;;;;;;;5035321;28;20268;-59
2023/10/25 12:45:08;;;;;;;1.33;1.23;;;;;;;;;;5034829;28;20271;-59
2023/10/25 12:47:39;;;;;;;1.30;1.20;;;;;;;;;;5034328;28;20206;-59
2023/10/25 12:50:10;;;;;;;1.55;1.30;;;;;;;;;;5033828;28;20264;-59
2023/10/25 12:52:38;;;;;;;1.42;1.33;;;;;;;;;;5035575;28;20221;-59
2023/10/25 12:55:06;;;;;;;2.00;1.30;;;;;;;;;;5035545;28;20201;-59
2023/10/25 12:57:34;;;;;;;1.20;1.10;;;;;;;;;;5034657;28;20209;-59
2023/10/25 13:00:02;;;;;;;1.38;1.27;;;;;;;;;;5034329;28;20291;-59
2023/10/25 13:02:29;;;;;;;1.60;1.50;;;;;;;;;;5034345;28;20202;-59
2023/10/25 13:04:59;;;;;;;1.40;1.30;;;;;;;;;;5035269;28;20201;-59
2023/10/25 13:07:27;;;;;;;1.48;1.25;;;;;;;;;;5034611;28;20502;-59
2023/10/25 13:09:54;;;;;;;1.40;1.10;;;;;;;;;;5034145;28;20316;-59
2023/10/25 13:12:22;;;;;;;1.60;1.50;;;;;;;;;;5033542;28;20213;-59
2023/10/25 13:14:50;;;;;;;1.60;1.20;;;;;;;;;;5034890;28;20201;-59
2023/10/25 13:17:17;;;;;;;1.40;1.30;;;;;;;;;;5034019;28;20206;-59
2023/10/25 13:19:45;;;;;;;1.27;1.17;;;;;;;;;;5033630;28;20229;-59
2023/10/25 13:22:15;;;;;;;1.10;1.00;;;;;;;;;;5032783;28;20237;-59
2023/10/25 13:24:43;;;;;;;1.38;1.27;;;;;;;;;;5033627;28;20284;-59
2023/10/25 13:27:10;;;;;;;1.30;1.20;;;;;;;;;;5033913;28;20213;-59
2023/10/25 13:29:38;;;;;;;1.20;1.10;;;;;;;;;;5033752;28;20618;-59
2023/10/25 13:32:07;;;;;;;1.40;1.20;;;;;;;;;;5034090;28;20205;-59
2023/10/25 13:34:34;;;;;;;1.40;1.20;;;;;;;;;;5034176;28;20244;-59
2023/10/25 13:37:02;;;;;;;1.67;1.10;;;;;;;;;;5034770;28;20208;-59
2023/10/25 13:39:32;;;;;;;1.00;0.90;;;;;;;;;;5033189;28;20221;-59
2023/10/25 13:41:59;;;;;;;1.30;1.20;;;;;;;;;;5033512;28;20231;-59
2023/10/25 13:44:27;;;;;;;1.20;1.10;;;;;;;;;;5033174;28;20213;-59
2023/10/25 13:46:55;;;;;;;1.40;1.30;;;;;;;;;;5034224;28;20224;-59
2023/10/25 13:49:23;;;;;;;0.90;0.90;;;;;;;;;;5036116;28;20209;-59
2023/10/25 13:51:50;;;;;;;1.30;1.20;;;;;;;;;;5037945;28;20209;-59
2023/10/25 13:54:18;;;;;;;1.30;1.20;;;;;;;;;;5037798;28;20270;-59
2023/10/25 13:56:47;;;;;;;1.30;1.20;;;;;;;;;;5037415;28;20288;-59
2023/10/25 13:59:16;;;;;;;1.20;1.10;;;;;;;;;;5037944;28;20244;-59
2023/10/25 14:01:43;;;;;;;1.27;1.17;;;;;;;;;;5037493;28;20213;-59
2023/10/25 14:04:11;;;;;;;1.13;1.02;;;;;;;;;;5036609;28;20782;-59
2023/10/25 14:06:38;;;;;;;1.02;1.02;;;;;;;;;;5038066;28;20228;-59
2023/10/25 14:09:06;;;;;;;1.58;1.30;;;;;;;;;;5036842;28;20213;-59
2023/10/25 14:11:34;;;;;;;1.10;1.00;;;;;;;;;;5037575;28;20205;-59
2023/10/25 14:14:03;;;;;;;1.10;1.00;;;;;;;;;;5037211;28;20300;-59
2023/10/25 14:16:31;;;;;;;1.20;1.17;;;;;;;;;;5037290;28;20205;-59
2023/10/25 14:18:58;;;;;;;1.48;1.38;;;;;;;;;;5037340;28;20232;-59
2023/10/25 14:21:26;;;;;;;1.27;1.17;;;;;;;;;;5037199;28;20351;-59
2023/10/25 14:23:53;;;;;;;1.40;1.30;;;;;;;;;;5036976;28;20213;-59
2023/10/25 14:26:21;;;;;;;1.08;1.00;;;;;;;;;;5036975;28;20206;-59
2023/10/25 14:28:49;;;;;;;1.27;1.17;;;;;;;;;;5037810;28;20198;-59
2023/10/25 14:31:18;;;;;;;1.25;1.15;;;;;;;;;;5036040;28;20208;-59
2023/10/25 14:33:45;;;;;;;1.30;1.20;;;;;;;;;;5036852;28;20255;-59
2023/10/25 14:36:14;;;;;;;0.85;0.85;;;;;;;;;;5036918;28;20316;-59
2023/10/25 14:38:42;;;;;;;1.20;1.10;;;;;;;;;;5036811;28;20209;-59
2023/10/25 14:41:09;;;;;;;1.20;1.10;;;;;;;;;;5036973;28;20237;-59
2023/10/25 14:43:38;;;;;;;1.10;1.10;;;;;;;;;;5037495;28;20291;-59
2023/10/25 14:46:12;;;;;;;1.30;1.10;;;;;;;;;;5036818;28;20316;-59
2023/10/25 14:48:41;;;;;;;1.20;1.10;;;;;;;;;;5037096;28;20205;-59